Avery, Idaho
Current Conditions -  °F | °C
As of 4:53 AM on Thursday 30 Oct 2014 (Local Time) from KMLP Reporting Station
Moderate Fog Moderate Fog  
Wind Chill: 27°   Ceiling: 100
Heat Index: 34°   Visibility: 0.5mi
Dew Point: 34°   Wind: 9mph
Humidity: 100%   Direction: 150°SSE
Pressure: 30.2"   Gusts: NA
Location:  47.25°N, 115.81°W
Report Text: KMLP 301153Z AUTO 15008KT 1/2SM FG BKN001 OVC085 01/01 A3020 RMK AO2 SLP192 70004 T00110011 10022 20011 58006 $
Loading
Personal Weather Stations






























Interactive Weather Map
Tropical Storm Tracking
New forecast layout! Learn more

10-Day Weather Forecast

Advertisements
Track Severe Weather on mobile